sensor_id;sensor_type;location;lat;lon;timestamp;P1;durP1;ratioP1;P2;durP2;ratioP2
1949;SDS011;975;48.760;9.152;2023-03-13T00:01:40;5.15;;;2.20;;
1949;SDS011;975;48.760;9.152;2023-03-13T00:04:30;7.72;;;2.20;;
1949;SDS011;975;48.760;9.152;2023-03-13T00:07:18;10.55;;;3.08;;
1949;SDS011;975;48.760;9.152;2023-03-13T00:10:08;9.75;;;3.40;;
1949;SDS011;975;48.760;9.152;2023-03-13T00:12:57;8.85;;;2.67;;
1949;SDS011;975;48.760;9.152;2023-03-13T00:15:45;7.38;;;2.35;;
1949;SDS011;975;48.760;9.152;2023-03-13T00:18:32;9.88;;;2.70;;
1949;SDS011;975;48.760;9.152;2023-03-13T00:21:20;7.25;;;1.80;;
1949;SDS011;975;48.760;9.152;2023-03-13T00:24:09;11.00;;;2.92;;
1949;SDS011;975;48.760;9.152;2023-03-13T00:26:57;4.00;;;1.70;;
1949;SDS011;975;48.760;9.152;2023-03-13T00:29:49;12.35;;;2.75;;
1949;SDS011;975;48.760;9.152;2023-03-13T00:32:39;5.82;;;2.67;;
1949;SDS011;975;48.760;9.152;2023-03-13T00:35:27;10.77;;;2.75;;
1949;SDS011;975;48.760;9.152;2023-03-13T00:38:14;6.93;;;2.50;;
1949;SDS011;975;48.760;9.152;2023-03-13T00:41:03;4.65;;;2.25;;
1949;SDS011;975;48.760;9.152;2023-03-13T00:43:51;5.50;;;2.40;;
1949;SDS011;975;48.760;9.152;2023-03-13T00:46:44;11.15;;;2.42;;
1949;SDS011;975;48.760;9.152;2023-03-13T00:49:31;9.05;;;2.63;;
1949;SDS011;975;48.760;9.152;2023-03-13T00:52:19;7.28;;;2.72;;
1949;SDS011;975;48.760;9.152;2023-03-13T00:55:07;6.63;;;2.10;;
1949;SDS011;975;48.760;9.152;2023-03-13T00:57:55;7.45;;;2.33;;
1949;SDS011;975;48.760;9.152;2023-03-13T01:00:42;6.97;;;2.30;;
1949;SDS011;975;48.760;9.152;2023-03-13T01:03:31;7.88;;;2.63;;
1949;SDS011;975;48.760;9.152;2023-03-13T01:06:19;6.55;;;2.60;;
1949;SDS011;975;48.760;9.152;2023-03-13T01:09:09;7.72;;;2.10;;
1949;SDS011;975;48.760;9.152;2023-03-13T01:11:58;9.93;;;1.90;;
1949;SDS011;975;48.760;9.152;2023-03-13T01:14:48;6.65;;;2.10;;
1949;SDS011;975;48.760;9.152;2023-03-13T01:17:35;7.28;;;2.67;;
1949;SDS011;975;48.760;9.152;2023-03-13T01:20:24;10.38;;;2.72;;
1949;SDS011;975;48.760;9.152;2023-03-13T01:23:15;9.73;;;2.25;;
1949;SDS011;975;48.760;9.152;2023-03-13T01:26:03;12.40;;;2.92;;
1949;SDS011;975;48.760;9.152;2023-03-13T01:28:52;11.02;;;3.00;;
1949;SDS011;975;48.760;9.152;2023-03-13T01:31:40;11.23;;;2.53;;
1949;SDS011;975;48.760;9.152;2023-03-13T01:34:28;10.32;;;2.65;;
1949;SDS011;975;48.760;9.152;2023-03-13T01:37:17;10.65;;;2.92;;
1949;SDS011;975;48.760;9.152;2023-03-13T01:40:05;7.15;;;2.35;;
1949;SDS011;975;48.760;9.152;2023-03-13T01:42:53;7.18;;;2.28;;
1949;SDS011;975;48.760;9.152;2023-03-13T01:48:59;7.07;;;2.60;;
1949;SDS011;975;48.760;9.152;2023-03-13T01:51:51;11.75;;;2.85;;
1949;SDS011;975;48.760;9.152;2023-03-13T01:54:42;6.57;;;2.20;;
1949;SDS011;975;48.760;9.152;2023-03-13T01:57:36;9.93;;;2.70;;
1949;SDS011;975;48.760;9.152;2023-03-13T02:00:27;8.68;;;3.00;;
1949;SDS011;975;48.760;9.152;2023-03-13T02:03:19;7.50;;;2.55;;
1949;SDS011;975;48.760;9.152;2023-03-13T02:06:07;5.18;;;2.53;;
1949;SDS011;975;48.760;9.152;2023-03-13T02:08:56;11.85;;;2.65;;
1949;SDS011;975;48.760;9.152;2023-03-13T02:11:51;7.40;;;2.45;;
1949;SDS011;975;48.760;9.152;2023-03-13T02:14:43;8.25;;;2.35;;
1949;SDS011;975;48.760;9.152;2023-03-13T02:17:32;9.15;;;2.80;;
1949;SDS011;975;48.760;9.152;2023-03-13T02:20:21;7.32;;;2.63;;
1949;SDS011;975;48.760;9.152;2023-03-13T02:23:10;7.18;;;2.10;;
1949;SDS011;975;48.760;9.152;2023-03-13T02:26:13;10.65;;;2.17;;
1949;SDS011;975;48.760;9.152;2023-03-13T02:29:03;7.30;;;1.80;;
1949;SDS011;975;48.760;9.152;2023-03-13T02:32:02;6.53;;;1.80;;
1949;SDS011;975;48.760;9.152;2023-03-13T02:34:51;9.23;;;2.65;;
1949;SDS011;975;48.760;9.152;2023-03-13T02:37:43;10.10;;;2.30;;
1949;SDS011;975;48.760;9.152;2023-03-13T02:40:34;8.43;;;2.67;;
1949;SDS011;975;48.760;9.152;2023-03-13T02:43:25;7.70;;;2.10;;
1949;SDS011;975;48.760;9.152;2023-03-13T02:46:19;9.48;;;3.22;;
1949;SDS011;975;48.760;9.152;2023-03-13T02:49:15;8.48;;;2.88;;
1949;SDS011;975;48.760;9.152;2023-03-13T02:52:11;10.70;;;2.80;;
1949;SDS011;975;48.760;9.152;2023-03-13T02:55:04;8.38;;;2.15;;
1949;SDS011;975;48.760;9.152;2023-03-13T02:57:56;9.00;;;2.15;;
1949;SDS011;975;48.760;9.152;2023-03-13T03:00:45;7.28;;;2.00;;
1949;SDS011;975;48.760;9.152;2023-03-13T03:03:32;10.10;;;2.30;;
1949;SDS011;975;48.760;9.152;2023-03-13T03:06:20;11.13;;;2.58;;
1949;SDS011;975;48.760;9.152;2023-03-13T03:09:08;6.72;;;2.33;;
1949;SDS011;975;48.760;9.152;2023-03-13T03:11:55;8.88;;;2.15;;
1949;SDS011;975;48.760;9.152;2023-03-13T03:14:43;7.18;;;2.65;;
1949;SDS011;975;48.760;9.152;2023-03-13T03:17:31;17.85;;;2.58;;
1949;SDS011;975;48.760;9.152;2023-03-13T03:20:19;10.88;;;2.60;;
1949;SDS011;975;48.760;9.152;2023-03-13T03:23:06;7.18;;;2.40;;
1949;SDS011;975;48.760;9.152;2023-03-13T03:25:54;8.52;;;2.15;;
1949;SDS011;975;48.760;9.152;2023-03-13T03:28:41;9.05;;;2.05;;
1949;SDS011;975;48.760;9.152;2023-03-13T03:31:29;5.63;;;2.30;;
1949;SDS011;975;48.760;9.152;2023-03-13T03:34:18;5.70;;;2.08;;
1949;SDS011;975;48.760;9.152;2023-03-13T03:37:06;5.50;;;1.98;;
1949;SDS011;975;48.760;9.152;2023-03-13T03:39:53;9.27;;;2.17;;
1949;SDS011;975;48.760;9.152;2023-03-13T03:42:41;7.22;;;1.42;;
1949;SDS011;975;48.760;9.152;2023-03-13T03:45:28;7.80;;;1.98;;
1949;SDS011;975;48.760;9.152;2023-03-13T03:48:16;5.70;;;1.67;;
1949;SDS011;975;48.760;9.152;2023-03-13T03:51:05;6.63;;;1.75;;
1949;SDS011;975;48.760;9.152;2023-03-13T03:53:53;7.00;;;2.03;;
1949;SDS011;975;48.760;9.152;2023-03-13T03:56:41;4.63;;;1.42;;
1949;SDS011;975;48.760;9.152;2023-03-13T03:59:28;6.70;;;1.65;;
1949;SDS011;975;48.760;9.152;2023-03-13T04:02:16;6.28;;;2.05;;
1949;SDS011;975;48.760;9.152;2023-03-13T04:05:06;2.95;;;0.75;;
1949;SDS011;975;48.760;9.152;2023-03-13T04:07:55;5.78;;;1.63;;
1949;SDS011;975;48.760;9.152;2023-03-13T04:10:43;3.08;;;0.93;;
1949;SDS011;975;48.760;9.152;2023-03-13T04:13:30;2.83;;;0.65;;
1949;SDS011;975;48.760;9.152;2023-03-13T04:16:18;2.28;;;0.50;;
1949;SDS011;975;48.760;9.152;2023-03-13T04:19:05;1.55;;;0.80;;
1949;SDS011;975;48.760;9.152;2023-03-13T04:21:53;0.95;;;0.50;;
1949;SDS011;975;48.760;9.152;2023-03-13T04:24:41;1.92;;;0.40;;
1949;SDS011;975;48.760;9.152;2023-03-13T04:27:29;1.13;;;0.30;;
1949;SDS011;975;48.760;9.152;2023-03-13T04:30:17;0.75;;;0.50;;
1949;SDS011;975;48.760;9.152;2023-03-13T04:33:05;0.90;;;0.40;;
1949;SDS011;975;48.760;9.152;2023-03-13T04:35:52;2.05;;;0.60;;
1949;SDS011;975;48.760;9.152;2023-03-13T04:38:40;2.90;;;0.63;;
1949;SDS011;975;48.760;9.152;2023-03-13T04:41:28;0.50;;;0.40;;
1949;SDS011;975;48.760;9.152;2023-03-13T04:44:16;2.65;;;0.45;;
1949;SDS011;975;48.760;9.152;2023-03-13T04:47:03;1.25;;;0.50;;
1949;SDS011;975;48.760;9.152;2023-03-13T04:49:51;1.52;;;0.52;;
1949;SDS011;975;48.760;9.152;2023-03-13T04:52:41;2.55;;;0.50;;
1949;SDS011;975;48.760;9.152;2023-03-13T04:55:29;3.35;;;0.55;;
1949;SDS011;975;48.760;9.152;2023-03-13T04:58:18;1.27;;;0.50;;
1949;SDS011;975;48.760;9.152;2023-03-13T05:01:06;3.15;;;0.95;;
1949;SDS011;975;48.760;9.152;2023-03-13T05:03:53;3.58;;;0.25;;
1949;SDS011;975;48.760;9.152;2023-03-13T05:06:41;2.00;;;0.43;;
1949;SDS011;975;48.760;9.152;2023-03-13T05:09:29;1.10;;;0.35;;
1949;SDS011;975;48.760;9.152;2023-03-13T05:12:17;2.30;;;0.60;;
1949;SDS011;975;48.760;9.152;2023-03-13T05:15:06;0.75;;;0.40;;
1949;SDS011;975;48.760;9.152;2023-03-13T05:17:54;0.60;;;0.40;;
1949;SDS011;975;48.760;9.152;2023-03-13T05:20:42;2.65;;;0.43;;
1949;SDS011;975;48.760;9.152;2023-03-13T05:23:30;1.98;;;0.65;;
1949;SDS011;975;48.760;9.152;2023-03-13T05:26:17;0.47;;;0.30;;
1949;SDS011;975;48.760;9.152;2023-03-13T05:29:05;2.17;;;0.43;;
1949;SDS011;975;48.760;9.152;2023-03-13T05:31:54;0.22;;;0.22;;
1949;SDS011;975;48.760;9.152;2023-03-13T05:34:42;2.45;;;0.60;;
1949;SDS011;975;48.760;9.152;2023-03-13T05:37:30;2.25;;;0.38;;
1949;SDS011;975;48.760;9.152;2023-03-13T05:40:18;0.60;;;0.43;;
1949;SDS011;975;48.760;9.152;2023-03-13T05:43:05;2.28;;;0.30;;
1949;SDS011;975;48.760;9.152;2023-03-13T05:45:53;0.60;;;0.40;;
1949;SDS011;975;48.760;9.152;2023-03-13T05:48:42;1.30;;;0.40;;
1949;SDS011;975;48.760;9.152;2023-03-13T05:51:31;1.80;;;0.40;;
1949;SDS011;975;48.760;9.152;2023-03-13T05:54:19;0.38;;;0.17;;
1949;SDS011;975;48.760;9.152;2023-03-13T05:57:06;1.23;;;0.25;;
1949;SDS011;975;48.760;9.152;2023-03-13T05:59:54;2.72;;;0.57;;
1949;SDS011;975;48.760;9.152;2023-03-13T06:02:42;0.80;;;0.45;;
1949;SDS011;975;48.760;9.152;2023-03-13T06:05:31;1.60;;;0.60;;
1949;SDS011;975;48.760;9.152;2023-03-13T06:08:19;1.20;;;0.40;;
1949;SDS011;975;48.760;9.152;2023-03-13T06:11:07;0.85;;;0.52;;
1949;SDS011;975;48.760;9.152;2023-03-13T06:13:54;1.05;;;0.40;;
1949;SDS011;975;48.760;9.152;2023-03-13T06:16:42;0.63;;;0.40;;
1949;SDS011;975;48.760;9.152;2023-03-13T06:19:30;1.75;;;0.50;;
1949;SDS011;975;48.760;9.152;2023-03-13T06:22:19;0.43;;;0.20;;
1949;SDS011;975;48.760;9.152;2023-03-13T06:25:07;0.15;;;0.15;;
1949;SDS011;975;48.760;9.152;2023-03-13T06:27:55;1.25;;;0.40;;
1949;SDS011;975;48.760;9.152;2023-03-13T06:30:42;1.33;;;0.30;;
1949;SDS011;975;48.760;9.152;2023-03-13T06:33:30;0.38;;;0.20;;
1949;SDS011;975;48.760;9.152;2023-03-13T06:36:18;0.35;;;0.17;;
1949;SDS011;975;48.760;9.152;2023-03-13T06:39:07;0.63;;;0.63;;
1949;SDS011;975;48.760;9.152;2023-03-13T06:41:55;0.63;;;0.57;;
1949;SDS011;975;48.760;9.152;2023-03-13T06:44:43;1.95;;;0.38;;
1949;SDS011;975;48.760;9.152;2023-03-13T06:47:30;0.32;;;0.20;;
1949;SDS011;975;48.760;9.152;2023-03-13T06:50:18;0.55;;;0.32;;
1949;SDS011;975;48.760;9.152;2023-03-13T06:53:06;0.47;;;0.20;;
1949;SDS011;975;48.760;9.152;2023-03-13T06:55:55;0.40;;;0.30;;
1949;SDS011;975;48.760;9.152;2023-03-13T06:58:47;0.30;;;0.20;;
1949;SDS011;975;48.760;9.152;2023-03-13T07:01:35;0.77;;;0.32;;
1949;SDS011;975;48.760;9.152;2023-03-13T07:04:23;0.15;;;0.15;;
1949;SDS011;975;48.760;9.152;2023-03-13T07:07:10;0.20;;;0.20;;
1949;SDS011;975;48.760;9.152;2023-03-13T07:09:58;0.77;;;0.45;;
1949;SDS011;975;48.760;9.152;2023-03-13T07:12:47;0.75;;;0.30;;
1949;SDS011;975;48.760;9.152;2023-03-13T07:18:23;1.08;;;0.40;;
1949;SDS011;975;48.760;9.152;2023-03-13T07:21:12;1.17;;;0.20;;
1949;SDS011;975;48.760;9.152;2023-03-13T07:23:59;1.10;;;0.35;;
1949;SDS011;975;48.760;9.152;2023-03-13T07:26:47;1.00;;;0.22;;
1949;SDS011;975;48.760;9.152;2023-03-13T07:29:36;0.93;;;0.40;;
1949;SDS011;975;48.760;9.152;2023-03-13T07:32:24;0.25;;;0.25;;
1949;SDS011;975;48.760;9.152;2023-03-13T07:35:12;5.10;;;0.40;;
1949;SDS011;975;48.760;9.152;2023-03-13T07:37:59;0.70;;;0.30;;
1949;SDS011;975;48.760;9.152;2023-03-13T07:40:48;0.75;;;0.32;;
1949;SDS011;975;48.760;9.152;2023-03-13T07:43:36;1.42;;;0.40;;
1949;SDS011;975;48.760;9.152;2023-03-13T07:46:25;0.43;;;0.43;;
1949;SDS011;975;48.760;9.152;2023-03-13T07:49:13;0.40;;;0.40;;
1949;SDS011;975;48.760;9.152;2023-03-13T07:52:01;3.42;;;1.10;;
1949;SDS011;975;48.760;9.152;2023-03-13T07:54:49;1.90;;;0.52;;
1949;SDS011;975;48.760;9.152;2023-03-13T07:57:36;1.70;;;0.50;;
1949;SDS011;975;48.760;9.152;2023-03-13T08:00:24;0.55;;;0.40;;
1949;SDS011;975;48.760;9.152;2023-03-13T08:03:16;1.55;;;0.40;;
1949;SDS011;975;48.760;9.152;2023-03-13T08:06:06;0.68;;;0.43;;
1949;SDS011;975;48.760;9.152;2023-03-13T08:08:57;0.30;;;0.30;;
1949;SDS011;975;48.760;9.152;2023-03-13T08:11:45;0.63;;;0.32;;
1949;SDS011;975;48.760;9.152;2023-03-13T08:14:33;0.68;;;0.40;;
1949;SDS011;975;48.760;9.152;2023-03-13T08:17:21;0.98;;;0.40;;
1949;SDS011;975;48.760;9.152;2023-03-13T08:20:11;0.82;;;0.50;;
1949;SDS011;975;48.760;9.152;2023-03-13T08:22:59;1.55;;;0.52;;
1949;SDS011;975;48.760;9.152;2023-03-13T08:26:00;1.17;;;0.40;;
1949;SDS011;975;48.760;9.152;2023-03-13T08:28:50;1.48;;;0.40;;
1949;SDS011;975;48.760;9.152;2023-03-13T08:31:41;5.85;;;2.70;;
1949;SDS011;975;48.760;9.152;2023-03-13T08:34:29;1.38;;;0.43;;
1949;SDS011;975;48.760;9.152;2023-03-13T08:37:21;1.13;;;0.70;;
1949;SDS011;975;48.760;9.152;2023-03-13T08:40:09;1.17;;;0.50;;
1949;SDS011;975;48.760;9.152;2023-03-13T08:42:58;1.45;;;0.63;;
1949;SDS011;975;48.760;9.152;2023-03-13T08:45:46;0.38;;;0.30;;
1949;SDS011;975;48.760;9.152;2023-03-13T08:48:33;0.43;;;0.43;;
1949;SDS011;975;48.760;9.152;2023-03-13T08:51:22;1.13;;;0.50;;
1949;SDS011;975;48.760;9.152;2023-03-13T08:54:11;0.82;;;0.50;;
1949;SDS011;975;48.760;9.152;2023-03-13T08:56:59;0.73;;;0.50;;
1949;SDS011;975;48.760;9.152;2023-03-13T08:59:46;1.70;;;0.50;;
1949;SDS011;975;48.760;9.152;2023-03-13T09:02:43;3.45;;;0.70;;
1949;SDS011;975;48.760;9.152;2023-03-13T09:05:30;6.32;;;0.82;;
1949;SDS011;975;48.760;9.152;2023-03-13T09:08:17;2.85;;;0.93;;
1949;SDS011;975;48.760;9.152;2023-03-13T09:11:10;1.15;;;0.60;;
1949;SDS011;975;48.760;9.152;2023-03-13T09:13:58;2.47;;;0.60;;
1949;SDS011;975;48.760;9.152;2023-03-13T09:16:46;1.15;;;0.63;;
1949;SDS011;975;48.760;9.152;2023-03-13T09:19:34;2.17;;;0.60;;
1949;SDS011;975;48.760;9.152;2023-03-13T09:22:24;1.02;;;0.52;;
1949;SDS011;975;48.760;9.152;2023-03-13T09:25:12;1.30;;;0.50;;
1949;SDS011;975;48.760;9.152;2023-03-13T09:28:02;1.10;;;0.70;;
1949;SDS011;975;48.760;9.152;2023-03-13T09:30:49;0.70;;;0.63;;
1949;SDS011;975;48.760;9.152;2023-03-13T09:33:38;2.78;;;0.77;;
1949;SDS011;975;48.760;9.152;2023-03-13T09:36:26;6.50;;;0.70;;
1949;SDS011;975;48.760;9.152;2023-03-13T09:39:14;0.65;;;0.30;;
1949;SDS011;975;48.760;9.152;2023-03-13T09:42:03;1.45;;;0.85;;
1949;SDS011;975;48.760;9.152;2023-03-13T09:44:57;2.92;;;0.70;;
1949;SDS011;975;48.760;9.152;2023-03-13T09:47:47;4.15;;;0.82;;
1949;SDS011;975;48.760;9.152;2023-03-13T09:50:38;1.00;;;0.80;;
1949;SDS011;975;48.760;9.152;2023-03-13T09:56:15;1.20;;;0.73;;
1949;SDS011;975;48.760;9.152;2023-03-13T09:59:04;0.75;;;0.68;;
1949;SDS011;975;48.760;9.152;2023-03-13T10:01:57;1.10;;;0.63;;
1949;SDS011;975;48.760;9.152;2023-03-13T10:04:47;2.10;;;1.00;;
1949;SDS011;975;48.760;9.152;2023-03-13T10:07:36;0.73;;;0.65;;
1949;SDS011;975;48.760;9.152;2023-03-13T10:10:27;2.05;;;0.57;;
1949;SDS011;975;48.760;9.152;2023-03-13T10:13:18;2.15;;;0.82;;
1949;SDS011;975;48.760;9.152;2023-03-13T10:16:06;1.05;;;0.88;;
1949;SDS011;975;48.760;9.152;2023-03-13T10:18:59;1.77;;;0.90;;
1949;SDS011;975;48.760;9.152;2023-03-13T10:21:55;1.23;;;0.85;;
1949;SDS011;975;48.760;9.152;2023-03-13T10:24:44;4.10;;;1.08;;
1949;SDS011;975;48.760;9.152;2023-03-13T10:27:41;1.02;;;0.77;;
1949;SDS011;975;48.760;9.152;2023-03-13T10:30:29;1.73;;;1.02;;
1949;SDS011;975;48.760;9.152;2023-03-13T10:33:18;1.70;;;0.90;;
1949;SDS011;975;48.760;9.152;2023-03-13T10:36:08;1.30;;;0.95;;
1949;SDS011;975;48.760;9.152;2023-03-13T10:38:57;2.78;;;1.05;;
1949;SDS011;975;48.760;9.152;2023-03-13T10:41:44;2.67;;;0.95;;
1949;SDS011;975;48.760;9.152;2023-03-13T10:44:32;3.92;;;1.08;;
1949;SDS011;975;48.760;9.152;2023-03-13T10:47:20;2.75;;;1.05;;
1949;SDS011;975;48.760;9.152;2023-03-13T10:50:11;1.13;;;0.65;;
1949;SDS011;975;48.760;9.152;2023-03-13T10:53:15;4.82;;;1.10;;
1949;SDS011;975;48.760;9.152;2023-03-13T10:56:11;4.63;;;0.95;;
1949;SDS011;975;48.760;9.152;2023-03-13T10:58:59;1.15;;;0.93;;
1949;SDS011;975;48.760;9.152;2023-03-13T11:01:47;1.17;;;0.73;;
1949;SDS011;975;48.760;9.152;2023-03-13T11:04:35;2.63;;;1.33;;
1949;SDS011;975;48.760;9.152;2023-03-13T11:07:26;2.70;;;0.90;;
1949;SDS011;975;48.760;9.152;2023-03-13T11:10:17;2.88;;;1.05;;
1949;SDS011;975;48.760;9.152;2023-03-13T11:13:09;1.92;;;1.10;;
1949;SDS011;975;48.760;9.152;2023-03-13T11:16:18;2.50;;;1.25;;
1949;SDS011;975;48.760;9.152;2023-03-13T11:19:15;0.98;;;0.88;;
1949;SDS011;975;48.760;9.152;2023-03-13T11:25:21;2.03;;;0.95;;
1949;SDS011;975;48.760;9.152;2023-03-13T11:28:16;1.08;;;0.90;;
1949;SDS011;975;48.760;9.152;2023-03-13T11:31:08;2.63;;;1.48;;
1949;SDS011;975;48.760;9.152;2023-03-13T11:33:57;6.63;;;3.75;;
1949;SDS011;975;48.760;9.152;2023-03-13T11:36:51;1.13;;;0.98;;
1949;SDS011;975;48.760;9.152;2023-03-13T11:39:42;1.23;;;1.00;;
1949;SDS011;975;48.760;9.152;2023-03-13T11:42:54;3.60;;;1.30;;
1949;SDS011;975;48.760;9.152;2023-03-13T11:46:14;2.40;;;1.00;;
1949;SDS011;975;48.760;9.152;2023-03-13T11:49:30;3.53;;;0.95;;
1949;SDS011;975;48.760;9.152;2023-03-13T11:52:42;1.63;;;0.93;;
1949;SDS011;975;48.760;9.152;2023-03-13T11:55:48;3.25;;;1.13;;
1949;SDS011;975;48.760;9.152;2023-03-13T11:58:48;1.73;;;1.00;;
1949;SDS011;975;48.760;9.152;2023-03-13T12:01:47;1.90;;;1.00;;
1949;SDS011;975;48.760;9.152;2023-03-13T12:04:40;1.90;;;1.80;;
1949;SDS011;975;48.760;9.152;2023-03-13T12:07:31;1.52;;;0.80;;
1949;SDS011;975;48.760;9.152;2023-03-13T12:10:24;1.40;;;0.93;;
1949;SDS011;975;48.760;9.152;2023-03-13T12:13:16;2.22;;;0.82;;
1949;SDS011;975;48.760;9.152;2023-03-13T12:16:10;1.98;;;1.00;;
1949;SDS011;975;48.760;9.152;2023-03-13T12:19:01;2.38;;;1.40;;
1949;SDS011;975;48.760;9.152;2023-03-13T12:21:49;1.15;;;0.63;;
1949;SDS011;975;48.760;9.152;2023-03-13T12:24:39;0.93;;;0.80;;
1949;SDS011;975;48.760;9.152;2023-03-13T12:27:33;3.88;;;0.93;;
1949;SDS011;975;48.760;9.152;2023-03-13T12:30:26;1.52;;;1.10;;
1949;SDS011;975;48.760;9.152;2023-03-13T12:33:23;1.75;;;0.82;;
1949;SDS011;975;48.760;9.152;2023-03-13T12:36:16;2.05;;;0.60;;
1949;SDS011;975;48.760;9.152;2023-03-13T12:39:09;2.85;;;1.02;;
1949;SDS011;975;48.760;9.152;2023-03-13T12:42:16;1.63;;;0.80;;
1949;SDS011;975;48.760;9.152;2023-03-13T12:45:09;1.23;;;0.70;;
1949;SDS011;975;48.760;9.152;2023-03-13T12:48:05;1.25;;;0.75;;
1949;SDS011;975;48.760;9.152;2023-03-13T12:51:05;3.15;;;0.88;;
1949;SDS011;975;48.760;9.152;2023-03-13T12:54:05;2.10;;;0.93;;
1949;SDS011;975;48.760;9.152;2023-03-13T12:56:59;2.45;;;1.00;;
1949;SDS011;975;48.760;9.152;2023-03-13T12:59:57;1.95;;;0.77;;
1949;SDS011;975;48.760;9.152;2023-03-13T13:03:00;1.30;;;0.75;;
1949;SDS011;975;48.760;9.152;2023-03-13T13:05:58;3.63;;;0.80;;
1949;SDS011;975;48.760;9.152;2023-03-13T13:09:06;0.88;;;0.85;;
1949;SDS011;975;48.760;9.152;2023-03-13T13:11:54;2.13;;;0.98;;
1949;SDS011;975;48.760;9.152;2023-03-13T13:18:22;1.33;;;1.00;;
1949;SDS011;975;48.760;9.152;2023-03-13T13:21:21;1.20;;;0.70;;
1949;SDS011;975;48.760;9.152;2023-03-13T13:27:44;2.65;;;0.60;;
1949;SDS011;975;48.760;9.152;2023-03-13T13:30:32;0.93;;;0.50;;
1949;SDS011;975;48.760;9.152;2023-03-13T13:36:29;2.38;;;0.70;;
1949;SDS011;975;48.760;9.152;2023-03-13T13:39:30;1.00;;;0.50;;
1949;SDS011;975;48.760;9.152;2023-03-13T13:42:47;1.48;;;0.60;;
1949;SDS011;975;48.760;9.152;2023-03-13T13:45:36;2.47;;;1.10;;
1949;SDS011;975;48.760;9.152;2023-03-13T13:48:46;4.95;;;1.30;;
1949;SDS011;975;48.760;9.152;2023-03-13T13:55:31;3.03;;;1.55;;
1949;SDS011;975;48.760;9.152;2023-03-13T13:58:30;7.15;;;0.68;;
1949;SDS011;975;48.760;9.152;2023-03-13T14:01:19;1.98;;;0.70;;
1949;SDS011;975;48.760;9.152;2023-03-13T14:04:15;2.05;;;0.82;;
1949;SDS011;975;48.760;9.152;2023-03-13T14:07:09;0.75;;;0.60;;
1949;SDS011;975;48.760;9.152;2023-03-13T14:09:59;3.08;;;0.90;;
1949;SDS011;975;48.760;9.152;2023-03-13T14:12:50;0.82;;;0.70;;
1949;SDS011;975;48.760;9.152;2023-03-13T14:15:43;2.88;;;1.00;;
1949;SDS011;975;48.760;9.152;2023-03-13T14:18:31;2.08;;;1.13;;
1949;SDS011;975;48.760;9.152;2023-03-13T14:21:22;2.63;;;0.57;;
1949;SDS011;975;48.760;9.152;2023-03-13T14:24:13;1.63;;;0.82;;
1949;SDS011;975;48.760;9.152;2023-03-13T14:27:01;2.45;;;0.60;;
1949;SDS011;975;48.760;9.152;2023-03-13T14:30:00;1.27;;;0.60;;
1949;SDS011;975;48.760;9.152;2023-03-13T14:32:50;0.88;;;0.50;;
1949;SDS011;975;48.760;9.152;2023-03-13T14:35:39;4.80;;;0.80;;
1949;SDS011;975;48.760;9.152;2023-03-13T14:38:27;1.70;;;0.88;;
1949;SDS011;975;48.760;9.152;2023-03-13T14:41:27;0.80;;;0.70;;
1949;SDS011;975;48.760;9.152;2023-03-13T14:44:19;1.83;;;0.80;;
1949;SDS011;975;48.760;9.152;2023-03-13T14:47:21;1.50;;;0.90;;
1949;SDS011;975;48.760;9.152;2023-03-13T14:50:12;2.03;;;1.05;;
1949;SDS011;975;48.760;9.152;2023-03-13T14:53:01;0.95;;;0.80;;
1949;SDS011;975;48.760;9.152;2023-03-13T14:56:07;1.08;;;0.90;;
1949;SDS011;975;48.760;9.152;2023-03-13T14:59:04;1.95;;;0.73;;
1949;SDS011;975;48.760;9.152;2023-03-13T15:01:56;2.80;;;0.80;;
1949;SDS011;975;48.760;9.152;2023-03-13T15:04:55;2.72;;;0.68;;
1949;SDS011;975;48.760;9.152;2023-03-13T15:07:46;2.13;;;0.60;;
1949;SDS011;975;48.760;9.152;2023-03-13T15:10:35;2.90;;;0.60;;
1949;SDS011;975;48.760;9.152;2023-03-13T15:13:26;0.93;;;0.75;;
1949;SDS011;975;48.760;9.152;2023-03-13T15:16:17;2.47;;;1.38;;
1949;SDS011;975;48.760;9.152;2023-03-13T15:19:06;2.25;;;0.80;;
1949;SDS011;975;48.760;9.152;2023-03-13T15:21:54;1.08;;;0.70;;
1949;SDS011;975;48.760;9.152;2023-03-13T15:24:43;1.25;;;0.45;;
1949;SDS011;975;48.760;9.152;2023-03-13T15:27:31;1.13;;;0.80;;
1949;SDS011;975;48.760;9.152;2023-03-13T15:30:20;2.47;;;0.80;;
1949;SDS011;975;48.760;9.152;2023-03-13T15:33:11;2.50;;;0.77;;
1949;SDS011;975;48.760;9.152;2023-03-13T15:35:59;0.77;;;0.50;;
1949;SDS011;975;48.760;9.152;2023-03-13T15:38:47;2.92;;;0.88;;
1949;SDS011;975;48.760;9.152;2023-03-13T15:41:37;3.05;;;0.98;;
1949;SDS011;975;48.760;9.152;2023-03-13T15:44:28;1.58;;;0.70;;
1949;SDS011;975;48.760;9.152;2023-03-13T15:47:16;1.35;;;1.00;;
1949;SDS011;975;48.760;9.152;2023-03-13T15:50:05;1.02;;;0.70;;
1949;SDS011;975;48.760;9.152;2023-03-13T15:52:53;2.22;;;0.90;;
1949;SDS011;975;48.760;9.152;2023-03-13T15:55:41;1.65;;;0.70;;
1949;SDS011;975;48.760;9.152;2023-03-13T15:58:30;1.77;;;0.90;;
1949;SDS011;975;48.760;9.152;2023-03-13T16:01:17;2.90;;;1.77;;
1949;SDS011;975;48.760;9.152;2023-03-13T16:04:08;3.53;;;0.95;;
1949;SDS011;975;48.760;9.152;2023-03-13T16:06:56;4.47;;;1.17;;
1949;SDS011;975;48.760;9.152;2023-03-13T16:09:43;1.23;;;1.05;;
1949;SDS011;975;48.760;9.152;2023-03-13T16:12:31;2.78;;;1.52;;
1949;SDS011;975;48.760;9.152;2023-03-13T16:15:20;4.22;;;2.30;;
1949;SDS011;975;48.760;9.152;2023-03-13T16:18:08;5.78;;;3.20;;
1949;SDS011;975;48.760;9.152;2023-03-13T16:21:00;5.22;;;1.00;;
1949;SDS011;975;48.760;9.152;2023-03-13T16:23:47;1.88;;;1.30;;
1949;SDS011;975;48.760;9.152;2023-03-13T16:26:35;3.08;;;1.10;;
1949;SDS011;975;48.760;9.152;2023-03-13T16:29:23;1.85;;;0.98;;
1949;SDS011;975;48.760;9.152;2023-03-13T16:32:13;2.75;;;0.80;;
1949;SDS011;975;48.760;9.152;2023-03-13T16:35:01;1.88;;;1.00;;
1949;SDS011;975;48.760;9.152;2023-03-13T16:37:49;3.50;;;0.70;;
1949;SDS011;975;48.760;9.152;2023-03-13T16:40:37;1.10;;;1.00;;
1949;SDS011;975;48.760;9.152;2023-03-13T16:43:24;2.40;;;0.80;;
1949;SDS011;975;48.760;9.152;2023-03-13T16:46:13;3.47;;;0.93;;
1949;SDS011;975;48.760;9.152;2023-03-13T16:49:02;2.38;;;1.70;;
1949;SDS011;975;48.760;9.152;2023-03-13T16:51:50;2.53;;;1.00;;
1949;SDS011;975;48.760;9.152;2023-03-13T16:54:38;7.15;;;2.97;;
1949;SDS011;975;48.760;9.152;2023-03-13T16:57:26;4.18;;;1.70;;
1949;SDS011;975;48.760;9.152;2023-03-13T17:00:15;4.55;;;1.35;;
1949;SDS011;975;48.760;9.152;2023-03-13T17:03:03;0.93;;;0.88;;
1949;SDS011;975;48.760;9.152;2023-03-13T17:05:52;2.00;;;1.30;;
1949;SDS011;975;48.760;9.152;2023-03-13T17:08:40;1.48;;;1.08;;
1949;SDS011;975;48.760;9.152;2023-03-13T17:11:29;3.72;;;1.33;;
1949;SDS011;975;48.760;9.152;2023-03-13T17:14:16;4.35;;;1.00;;
1949;SDS011;975;48.760;9.152;2023-03-13T17:17:04;2.72;;;1.30;;
1949;SDS011;975;48.760;9.152;2023-03-13T17:19:52;2.17;;;0.95;;
1949;SDS011;975;48.760;9.152;2023-03-13T17:22:43;2.53;;;1.30;;
1949;SDS011;975;48.760;9.152;2023-03-13T17:25:31;4.10;;;1.38;;
1949;SDS011;975;48.760;9.152;2023-03-13T17:28:22;7.05;;;1.45;;
1949;SDS011;975;48.760;9.152;2023-03-13T17:31:10;2.42;;;1.00;;
1949;SDS011;975;48.760;9.152;2023-03-13T17:33:58;2.92;;;1.23;;
1949;SDS011;975;48.760;9.152;2023-03-13T17:36:48;7.80;;;1.05;;
1949;SDS011;975;48.760;9.152;2023-03-13T17:39:37;2.63;;;1.20;;
1949;SDS011;975;48.760;9.152;2023-03-13T17:42:24;4.20;;;1.42;;
1949;SDS011;975;48.760;9.152;2023-03-13T17:45:12;2.97;;;1.38;;
1949;SDS011;975;48.760;9.152;2023-03-13T17:48:00;3.97;;;1.67;;
1949;SDS011;975;48.760;9.152;2023-03-13T17:50:48;6.57;;;2.05;;
1949;SDS011;975;48.760;9.152;2023-03-13T17:53:38;3.97;;;1.25;;
1949;SDS011;975;48.760;9.152;2023-03-13T17:56:28;2.03;;;1.45;;
1949;SDS011;975;48.760;9.152;2023-03-13T17:59:17;2.80;;;0.98;;
1949;SDS011;975;48.760;9.152;2023-03-13T18:02:07;4.82;;;1.45;;
1949;SDS011;975;48.760;9.152;2023-03-13T18:04:55;4.28;;;1.50;;
1949;SDS011;975;48.760;9.152;2023-03-13T18:07:43;3.95;;;1.27;;
1949;SDS011;975;48.760;9.152;2023-03-13T18:10:31;6.60;;;1.50;;
1949;SDS011;975;48.760;9.152;2023-03-13T18:13:20;5.00;;;1.52;;
1949;SDS011;975;48.760;9.152;2023-03-13T18:16:18;2.88;;;1.13;;
1949;SDS011;975;48.760;9.152;2023-03-13T18:19:07;1.85;;;1.38;;
1949;SDS011;975;48.760;9.152;2023-03-13T18:21:56;3.65;;;1.80;;